Timestamp Temperature Pressure Humidity
2022-08-10 08:15:36 15.85 1028.53 82.89
2022-08-10 08:45:37 15.75 1028.47 83.2
2022-08-10 09:15:37 15.68 1028.42 83.75
2022-08-10 09:45:37 15.67 1028.35 83.48
2022-08-10 10:15:38 15.71 1028.28 82.09
2022-08-10 10:45:38 15.76 1028.22 82.4
2022-08-10 11:45:49 15.98 1028.06 74.1
2022-08-10 12:15:49 16.17 1027.96 70.25
2022-08-10 12:45:49 16.44 1027.84 67.58
2022-08-10 13:15:49 16.76 1027.69 60.34
2022-08-10 13:45:50 17.12 1027.54 54.97
2022-08-10 14:15:50 17.51 1027.39 51.71
2022-08-10 14:45:50 17.92 1027.24 50.42
2022-08-10 15:46:01 18.69 1026.94 51.96
2022-08-10 16:16:01 19.04 1026.78 50.89
2022-08-10 16:46:01 19.36 1026.64 45.74
2022-08-10 17:16:02 19.64 1026.5 41.58
2022-08-10 17:46:02 19.89 1026.37 39.38
2022-08-10 18:16:04 20.13 1026.25 36.86
2022-08-10 19:16:14 20.54 1026 38.35
2022-08-10 19:46:15 20.69 1025.89 39.92
2022-08-10 20:16:15 20.8 1025.79 43.48
2022-08-10 20:46:15 20.85 1025.7 47.22
2022-08-10 21:16:16 20.81 1025.64 54.22
2022-08-10 21:46:16 20.72 1025.59 57.19
2022-08-10 23:16:38 20.19 1025.5 62.35
2022-08-10 23:46:38 19.96 1025.47 63.42
2022-08-11 00:16:38 19.73 1025.44 64.32
2022-08-11 00:46:39 19.47 1025.42 65.17
2022-08-11 01:16:39 19.22 1025.4 66.04
2022-08-11 01:46:40 18.95 1025.38 66.29
2022-08-11 02:16:40 18.67 1025.36 66.8
2022-08-11 02:46:41 18.41 1025.33 67.02
2022-08-11 03:16:42 18.14 1025.31 67.06
2022-08-11 03:46:42 17.87 1025.26 68.01
2022-08-11 04:16:43 17.62 1025.22 67.97
2022-08-11 04:46:44 17.37 1025.19 67.96
2022-08-11 05:16:45 17.12 1025.16 68.34
2022-08-11 05:46:45 16.88 1025.13 69.07
2022-08-11 06:16:45 16.64 1025.09 69.03
2022-08-11 06:46:46 16.41 1025.05 69.83
2022-08-11 07:16:47 16.19 1025.01 71.16
2022-08-11 07:46:47 15.99 1024.96 72.88
2022-08-11 08:16:51 15.87 1024.91 72.73
2022-08-11 08:46:52 15.78 1024.88 73.04
2022-08-11 09:16:52 15.74 1024.84 71.76
2022-08-11 09:46:52 15.76 1024.81 68.87
2022-08-11 10:16:53 15.83 1024.75 67.11